Clinton, SC

7:28 AM EDT on March 30, 2015 (GMT -0400)
Laurens | | Change Station
CLOSE
Current Station
Airport
Location: Laurens,
Elevation: 696 ft
Nearby Weather Stations

Elev 696 ft 34.51 °N, 81.95 °W | Updated -409 second ago

Overcast
Overcast
41 °F
Feels Like 37 °F
N
6
Wind Variable Wind from WSW

Today
High -- | Low -- °F
--% Chance of Precip.
Yesterday
High -- | Low -- °F
Precip. -- in
7:17 AM 7:46 PM
Waxing Gibbous, 79% visible
Pressure 30.16 in
Visibility 7.0 miles
Clouds Scattered Clouds 3500 ft
Mostly Cloudy 4500 ft
Overcast 6500 ft
Windchill 37 °F
Dew Point 37 °F
Humidity 87%
Rainfall 0.01 in
Snow Depth Not available.
UV 0 out of 12
Pollen 8.60 out of 12
Air Quality Not available.
Flu Activity Not available.
METAR KLUX 301135Z AUTO 24005KT 7SM -TSRA SCT035 BKN045 OVC065 05/03 A3016 RMK AO2 LTG DSNT NE AND NW P0001

More Conditions Fewer Conditions

Pressure 30.16 in
Visibility 7.0 miles
Clouds Scattered Clouds 3500 ft
Mostly Cloudy 4500 ft
Overcast 6500 ft
Windchill 37 °F
Dew Point 37 °F
Humidity 87%
Rainfall 0.01 in
Snow Depth Not available.
UV 0 out of 12
Pollen 8.60 out of 12
Air Quality Not available.
Flu Activity Not available.
METAR KLUX 301135Z AUTO 24005KT 7SM -TSRA SCT035 BKN045 OVC065 05/03 A3016 RMK AO2 LTG DSNT NE AND NW P0001

More Conditions Fewer Conditions

10-Day Weather Forecast

Almanac

Astronomy

Mar. 30, 2015 Rise Set
Actual Time
Civil Twilight
Nautical Twilight
Astronomical Twilight
Moon
Length of Visible Light
Length of Day
Tomorrow will be .
, % of the Moon is Illuminated

Today's Extremes

State Highs State Lows

Community

WunderPhotos

Upload Photos

1,809,457 photos uploaded!

WunderBlogs® & News

Nearby

Air Quality

  Air Quality AQ Index Pollutant
Not available.

Snow Depth

Station Depth Elevation

Earthquake Activity

City Distance Mag. Time & Date
Minimum magnitude displayed is 2.5.

Coastal Water Temperatures

Place Temperature

Stations

Nearby Weather Stations

Station Location Temp. Windchill Dew Point Humidity Wind Precip. Elev Updated Type